sensor_id;sensor_type;location;lat;lon;timestamp;temperature;humidity
6654;DHT22;3363;50.942;7.034;2023-07-28T00:00:18;17.90;99.90
6654;DHT22;3363;50.942;7.034;2023-07-28T00:02:44;17.90;99.90
6654;DHT22;3363;50.942;7.034;2023-07-28T00:05:13;17.90;99.90
6654;DHT22;3363;50.942;7.034;2023-07-28T00:07:39;17.90;99.90
6654;DHT22;3363;50.942;7.034;2023-07-28T00:10:06;17.90;99.90
6654;DHT22;3363;50.942;7.034;2023-07-28T00:12:33;17.90;99.90
6654;DHT22;3363;50.942;7.034;2023-07-28T00:15:00;18.00;99.90
6654;DHT22;3363;50.942;7.034;2023-07-28T00:17:27;17.90;99.90
6654;DHT22;3363;50.942;7.034;2023-07-28T00:19:54;17.90;99.90
6654;DHT22;3363;50.942;7.034;2023-07-28T00:22:22;17.90;99.90
6654;DHT22;3363;50.942;7.034;2023-07-28T00:24:48;17.90;99.90
6654;DHT22;3363;50.942;7.034;2023-07-28T00:27:15;17.90;99.90
6654;DHT22;3363;50.942;7.034;2023-07-28T00:29:42;18.00;99.90
6654;DHT22;3363;50.942;7.034;2023-07-28T00:32:08;17.90;99.90
6654;DHT22;3363;50.942;7.034;2023-07-28T00:34:35;17.90;99.90
6654;DHT22;3363;50.942;7.034;2023-07-28T00:37:02;17.90;99.90
6654;DHT22;3363;50.942;7.034;2023-07-28T00:39:30;18.00;99.90
6654;DHT22;3363;50.942;7.034;2023-07-28T00:41:57;18.00;99.90
6654;DHT22;3363;50.942;7.034;2023-07-28T00:44:23;18.00;99.90
6654;DHT22;3363;50.942;7.034;2023-07-28T00:46:50;17.90;99.90
6654;DHT22;3363;50.942;7.034;2023-07-28T00:49:17;17.90;99.90
6654;DHT22;3363;50.942;7.034;2023-07-28T00:51:44;17.90;99.90
6654;DHT22;3363;50.942;7.034;2023-07-28T00:54:11;17.90;99.90
6654;DHT22;3363;50.942;7.034;2023-07-28T00:56:40;18.00;99.90
6654;DHT22;3363;50.942;7.034;2023-07-28T00:59:06;17.90;99.90
6654;DHT22;3363;50.942;7.034;2023-07-28T01:01:33;17.90;99.90
6654;DHT22;3363;50.942;7.034;2023-07-28T01:04:00;17.90;99.90
6654;DHT22;3363;50.942;7.034;2023-07-28T01:06:27;17.90;99.90
6654;DHT22;3363;50.942;7.034;2023-07-28T01:08:56;17.90;99.90
6654;DHT22;3363;50.942;7.034;2023-07-28T01:11:25;17.90;99.90
6654;DHT22;3363;50.942;7.034;2023-07-28T01:13:54;17.90;99.90
6654;DHT22;3363;50.942;7.034;2023-07-28T01:16:21;17.90;99.90
6654;DHT22;3363;50.942;7.034;2023-07-28T01:18:47;17.90;99.90
6654;DHT22;3363;50.942;7.034;2023-07-28T01:21:17;17.80;99.90
6654;DHT22;3363;50.942;7.034;2023-07-28T01:23:48;17.90;99.90
6654;DHT22;3363;50.942;7.034;2023-07-28T01:26:25;17.90;99.90
6654;DHT22;3363;50.942;7.034;2023-07-28T01:28:51;17.90;99.90
6654;DHT22;3363;50.942;7.034;2023-07-28T01:31:18;17.80;99.90
6654;DHT22;3363;50.942;7.034;2023-07-28T01:33:46;17.80;99.90
6654;DHT22;3363;50.942;7.034;2023-07-28T01:36:12;17.80;99.90
6654;DHT22;3363;50.942;7.034;2023-07-28T01:38:39;17.80;99.90
6654;DHT22;3363;50.942;7.034;2023-07-28T01:41:06;17.80;99.90
6654;DHT22;3363;50.942;7.034;2023-07-28T01:43:34;17.80;99.90
6654;DHT22;3363;50.942;7.034;2023-07-28T01:46:01;17.90;99.90
6654;DHT22;3363;50.942;7.034;2023-07-28T01:48:28;17.90;99.90
6654;DHT22;3363;50.942;7.034;2023-07-28T01:50:54;17.90;99.90
6654;DHT22;3363;50.942;7.034;2023-07-28T01:53:21;17.90;99.90
6654;DHT22;3363;50.942;7.034;2023-07-28T01:55:48;17.90;99.90
6654;DHT22;3363;50.942;7.034;2023-07-28T01:58:15;17.90;99.90
6654;DHT22;3363;50.942;7.034;2023-07-28T02:00:43;17.90;99.90
6654;DHT22;3363;50.942;7.034;2023-07-28T02:03:11;17.90;99.90
6654;DHT22;3363;50.942;7.034;2023-07-28T02:05:38;17.90;99.90
6654;DHT22;3363;50.942;7.034;2023-07-28T02:08:05;17.90;99.90
6654;DHT22;3363;50.942;7.034;2023-07-28T02:10:32;17.80;99.90
6654;DHT22;3363;50.942;7.034;2023-07-28T02:12:58;17.80;99.90
6654;DHT22;3363;50.942;7.034;2023-07-28T02:15:25;17.90;99.90
6654;DHT22;3363;50.942;7.034;2023-07-28T02:17:53;17.90;99.90
6654;DHT22;3363;50.942;7.034;2023-07-28T02:20:20;17.80;99.90
6654;DHT22;3363;50.942;7.034;2023-07-28T02:22:46;17.80;99.90
6654;DHT22;3363;50.942;7.034;2023-07-28T02:25:13;17.80;99.90
6654;DHT22;3363;50.942;7.034;2023-07-28T02:27:40;17.90;99.90
6654;DHT22;3363;50.942;7.034;2023-07-28T02:30:07;17.90;99.90
6654;DHT22;3363;50.942;7.034;2023-07-28T02:32:33;17.90;99.90
6654;DHT22;3363;50.942;7.034;2023-07-28T02:35:02;17.90;99.90
6654;DHT22;3363;50.942;7.034;2023-07-28T02:37:28;17.90;99.90
6654;DHT22;3363;50.942;7.034;2023-07-28T02:39:55;17.80;99.90
6654;DHT22;3363;50.942;7.034;2023-07-28T02:42:22;17.80;99.90
6654;DHT22;3363;50.942;7.034;2023-07-28T02:44:50;17.90;99.90
6654;DHT22;3363;50.942;7.034;2023-07-28T02:47:17;17.80;99.90
6654;DHT22;3363;50.942;7.034;2023-07-28T02:49:43;17.80;99.90
6654;DHT22;3363;50.942;7.034;2023-07-28T02:52:12;17.80;99.90
6654;DHT22;3363;50.942;7.034;2023-07-28T02:54:39;17.80;99.90
6654;DHT22;3363;50.942;7.034;2023-07-28T02:57:06;17.80;99.90
6654;DHT22;3363;50.942;7.034;2023-07-28T02:59:32;17.80;99.90
6654;DHT22;3363;50.942;7.034;2023-07-28T03:01:59;17.80;99.90
6654;DHT22;3363;50.942;7.034;2023-07-28T03:04:26;17.80;99.90
6654;DHT22;3363;50.942;7.034;2023-07-28T03:06:52;17.80;99.90
6654;DHT22;3363;50.942;7.034;2023-07-28T03:09:20;17.80;99.90
6654;DHT22;3363;50.942;7.034;2023-07-28T03:11:47;17.80;99.90
6654;DHT22;3363;50.942;7.034;2023-07-28T03:14:14;17.80;99.90
6654;DHT22;3363;50.942;7.034;2023-07-28T03:16:41;17.80;99.90
6654;DHT22;3363;50.942;7.034;2023-07-28T03:19:08;17.80;99.90
6654;DHT22;3363;50.942;7.034;2023-07-28T03:21:35;17.80;99.90
6654;DHT22;3363;50.942;7.034;2023-07-28T03:24:02;17.80;99.90
6654;DHT22;3363;50.942;7.034;2023-07-28T03:26:30;17.80;99.90
6654;DHT22;3363;50.942;7.034;2023-07-28T03:28:56;17.80;99.90
6654;DHT22;3363;50.942;7.034;2023-07-28T03:31:23;17.80;99.90
6654;DHT22;3363;50.942;7.034;2023-07-28T03:33:50;17.80;99.90
6654;DHT22;3363;50.942;7.034;2023-07-28T03:36:17;17.80;99.90
6654;DHT22;3363;50.942;7.034;2023-07-28T03:38:44;17.80;99.90
6654;DHT22;3363;50.942;7.034;2023-07-28T03:41:11;17.80;99.90
6654;DHT22;3363;50.942;7.034;2023-07-28T03:43:39;17.80;99.90
6654;DHT22;3363;50.942;7.034;2023-07-28T03:46:06;17.80;99.90
6654;DHT22;3363;50.942;7.034;2023-07-28T03:48:32;17.80;99.90
6654;DHT22;3363;50.942;7.034;2023-07-28T03:50:59;17.80;99.90
6654;DHT22;3363;50.942;7.034;2023-07-28T03:53:26;17.80;99.90
6654;DHT22;3363;50.942;7.034;2023-07-28T03:55:52;17.80;99.90
6654;DHT22;3363;50.942;7.034;2023-07-28T03:58:23;17.70;99.90
6654;DHT22;3363;50.942;7.034;2023-07-28T04:00:51;17.80;99.90
6654;DHT22;3363;50.942;7.034;2023-07-28T04:03:18;17.80;99.90
6654;DHT22;3363;50.942;7.034;2023-07-28T04:05:44;17.80;99.90
6654;DHT22;3363;50.942;7.034;2023-07-28T04:08:11;17.80;99.90
6654;DHT22;3363;50.942;7.034;2023-07-28T04:10:38;17.80;99.90
6654;DHT22;3363;50.942;7.034;2023-07-28T04:13:04;17.80;99.90
6654;DHT22;3363;50.942;7.034;2023-07-28T04:15:31;17.80;99.90
6654;DHT22;3363;50.942;7.034;2023-07-28T04:17:59;17.90;99.90
6654;DHT22;3363;50.942;7.034;2023-07-28T04:20:26;17.80;99.90
6654;DHT22;3363;50.942;7.034;2023-07-28T04:22:53;17.80;99.90
6654;DHT22;3363;50.942;7.034;2023-07-28T04:25:19;17.80;99.90
6654;DHT22;3363;50.942;7.034;2023-07-28T04:27:46;17.90;99.90
6654;DHT22;3363;50.942;7.034;2023-07-28T04:30:13;17.90;99.90
6654;DHT22;3363;50.942;7.034;2023-07-28T04:32:39;17.80;99.90
6654;DHT22;3363;50.942;7.034;2023-07-28T04:35:08;17.90;99.90
6654;DHT22;3363;50.942;7.034;2023-07-28T04:37:34;17.80;99.90
6654;DHT22;3363;50.942;7.034;2023-07-28T04:40:02;17.90;99.90
6654;DHT22;3363;50.942;7.034;2023-07-28T04:42:29;17.80;99.90
6654;DHT22;3363;50.942;7.034;2023-07-28T04:44:56;17.80;99.90
6654;DHT22;3363;50.942;7.034;2023-07-28T04:47:22;17.90;99.90
6654;DHT22;3363;50.942;7.034;2023-07-28T04:49:49;17.90;99.90
6654;DHT22;3363;50.942;7.034;2023-07-28T04:52:17;17.90;99.90
6654;DHT22;3363;50.942;7.034;2023-07-28T04:54:44;17.90;99.90
6654;DHT22;3363;50.942;7.034;2023-07-28T04:57:12;17.90;99.90
6654;DHT22;3363;50.942;7.034;2023-07-28T04:59:38;17.90;99.90
6654;DHT22;3363;50.942;7.034;2023-07-28T05:02:05;17.90;99.90
6654;DHT22;3363;50.942;7.034;2023-07-28T05:04:32;17.90;99.90
6654;DHT22;3363;50.942;7.034;2023-07-28T05:06:59;17.90;99.90
6654;DHT22;3363;50.942;7.034;2023-07-28T05:09:27;17.90;99.90
6654;DHT22;3363;50.942;7.034;2023-07-28T05:11:54;17.90;99.90
6654;DHT22;3363;50.942;7.034;2023-07-28T05:14:21;17.90;99.90
6654;DHT22;3363;50.942;7.034;2023-07-28T05:16:47;17.90;99.90
6654;DHT22;3363;50.942;7.034;2023-07-28T05:19:14;17.90;99.90
6654;DHT22;3363;50.942;7.034;2023-07-28T05:21:41;17.90;99.90
6654;DHT22;3363;50.942;7.034;2023-07-28T05:24:07;17.90;99.90
6654;DHT22;3363;50.942;7.034;2023-07-28T05:26:35;17.90;99.90
6654;DHT22;3363;50.942;7.034;2023-07-28T05:29:02;17.90;99.90
6654;DHT22;3363;50.942;7.034;2023-07-28T05:31:29;17.90;99.90
6654;DHT22;3363;50.942;7.034;2023-07-28T05:33:56;17.90;99.90
6654;DHT22;3363;50.942;7.034;2023-07-28T05:36:23;17.80;99.90
6654;DHT22;3363;50.942;7.034;2023-07-28T05:38:49;17.90;99.90
6654;DHT22;3363;50.942;7.034;2023-07-28T05:41:16;17.90;99.90
6654;DHT22;3363;50.942;7.034;2023-07-28T05:43:44;17.90;99.90
6654;DHT22;3363;50.942;7.034;2023-07-28T05:46:11;17.90;99.90
6654;DHT22;3363;50.942;7.034;2023-07-28T05:48:38;17.90;99.90
6654;DHT22;3363;50.942;7.034;2023-07-28T05:51:04;17.90;99.90
6654;DHT22;3363;50.942;7.034;2023-07-28T05:59:26;17.90;99.90
6654;DHT22;3363;50.942;7.034;2023-07-28T06:01:53;17.90;99.90
6654;DHT22;3363;50.942;7.034;2023-07-28T06:04:20;17.90;99.90
6654;DHT22;3363;50.942;7.034;2023-07-28T06:06:46;17.90;99.90
6654;DHT22;3363;50.942;7.034;2023-07-28T06:09:13;18.00;99.90
6654;DHT22;3363;50.942;7.034;2023-07-28T06:11:40;17.90;99.90
6654;DHT22;3363;50.942;7.034;2023-07-28T06:14:06;18.00;99.90
6654;DHT22;3363;50.942;7.034;2023-07-28T06:16:34;17.90;99.90
6654;DHT22;3363;50.942;7.034;2023-07-28T06:19:01;18.00;99.90
6654;DHT22;3363;50.942;7.034;2023-07-28T06:21:29;18.00;99.90
6654;DHT22;3363;50.942;7.034;2023-07-28T06:23:57;18.00;99.90
6654;DHT22;3363;50.942;7.034;2023-07-28T06:26:23;18.00;99.90
6654;DHT22;3363;50.942;7.034;2023-07-28T06:28:50;18.00;99.90
6654;DHT22;3363;50.942;7.034;2023-07-28T06:31:17;18.00;99.90
6654;DHT22;3363;50.942;7.034;2023-07-28T06:33:46;18.10;99.90
6654;DHT22;3363;50.942;7.034;2023-07-28T06:36:13;18.00;99.90
6654;DHT22;3363;50.942;7.034;2023-07-28T06:38:40;18.00;99.90
6654;DHT22;3363;50.942;7.034;2023-07-28T06:41:09;18.10;99.90
6654;DHT22;3363;50.942;7.034;2023-07-28T06:43:35;18.10;99.90
6654;DHT22;3363;50.942;7.034;2023-07-28T06:46:02;18.00;99.90
6654;DHT22;3363;50.942;7.034;2023-07-28T06:48:29;18.10;99.90
6654;DHT22;3363;50.942;7.034;2023-07-28T06:50:57;18.10;99.90
6654;DHT22;3363;50.942;7.034;2023-07-28T06:53:24;18.10;99.90
6654;DHT22;3363;50.942;7.034;2023-07-28T06:55:51;18.10;99.90
6654;DHT22;3363;50.942;7.034;2023-07-28T06:58:17;18.10;99.90
6654;DHT22;3363;50.942;7.034;2023-07-28T07:00:44;18.10;99.90
6654;DHT22;3363;50.942;7.034;2023-07-28T07:03:11;18.20;99.90
6654;DHT22;3363;50.942;7.034;2023-07-28T07:05:38;18.20;99.90
6654;DHT22;3363;50.942;7.034;2023-07-28T07:08:06;18.10;99.90
6654;DHT22;3363;50.942;7.034;2023-07-28T07:10:33;18.10;99.90
6654;DHT22;3363;50.942;7.034;2023-07-28T07:13:00;18.20;99.90
6654;DHT22;3363;50.942;7.034;2023-07-28T07:15:27;18.20;99.90
6654;DHT22;3363;50.942;7.034;2023-07-28T07:17:54;18.20;99.90
6654;DHT22;3363;50.942;7.034;2023-07-28T07:20:21;18.20;99.90
6654;DHT22;3363;50.942;7.034;2023-07-28T07:22:47;18.20;99.90
6654;DHT22;3363;50.942;7.034;2023-07-28T07:25:16;18.30;99.90
6654;DHT22;3363;50.942;7.034;2023-07-28T07:27:42;18.20;99.90
6654;DHT22;3363;50.942;7.034;2023-07-28T07:30:09;18.20;99.90
6654;DHT22;3363;50.942;7.034;2023-07-28T07:32:36;18.20;99.90
6654;DHT22;3363;50.942;7.034;2023-07-28T07:35:02;18.20;99.90
6654;DHT22;3363;50.942;7.034;2023-07-28T07:37:29;18.20;99.90
6654;DHT22;3363;50.942;7.034;2023-07-28T07:39:57;18.20;99.90
6654;DHT22;3363;50.942;7.034;2023-07-28T07:42:27;18.20;99.90
6654;DHT22;3363;50.942;7.034;2023-07-28T07:44:54;18.30;99.90
6654;DHT22;3363;50.942;7.034;2023-07-28T07:47:21;18.30;99.90
6654;DHT22;3363;50.942;7.034;2023-07-28T07:49:48;18.30;99.90
6654;DHT22;3363;50.942;7.034;2023-07-28T07:52:14;18.20;99.90
6654;DHT22;3363;50.942;7.034;2023-07-28T07:54:41;18.20;99.90
6654;DHT22;3363;50.942;7.034;2023-07-28T07:57:08;18.20;99.90
6654;DHT22;3363;50.942;7.034;2023-07-28T07:59:36;18.20;99.90
6654;DHT22;3363;50.942;7.034;2023-07-28T08:02:03;18.20;99.90
6654;DHT22;3363;50.942;7.034;2023-07-28T08:04:30;18.20;99.90
6654;DHT22;3363;50.942;7.034;2023-07-28T08:06:57;18.40;99.90
6654;DHT22;3363;50.942;7.034;2023-07-28T08:09:23;18.40;99.90
6654;DHT22;3363;50.942;7.034;2023-07-28T08:11:50;18.40;99.90
6654;DHT22;3363;50.942;7.034;2023-07-28T08:14:18;18.40;99.90
6654;DHT22;3363;50.942;7.034;2023-07-28T08:16:46;18.30;99.90
6654;DHT22;3363;50.942;7.034;2023-07-28T08:19:12;18.40;99.90
6654;DHT22;3363;50.942;7.034;2023-07-28T08:21:39;18.40;99.90
6654;DHT22;3363;50.942;7.034;2023-07-28T08:24:06;18.30;99.90
6654;DHT22;3363;50.942;7.034;2023-07-28T08:26:33;18.40;99.90
6654;DHT22;3363;50.942;7.034;2023-07-28T08:29:00;18.50;99.90
6654;DHT22;3363;50.942;7.034;2023-07-28T08:31:27;18.60;99.90
6654;DHT22;3363;50.942;7.034;2023-07-28T08:33:56;18.60;99.90
6654;DHT22;3363;50.942;7.034;2023-07-28T08:36:22;18.50;99.90
6654;DHT22;3363;50.942;7.034;2023-07-28T08:38:49;18.50;99.90
6654;DHT22;3363;50.942;7.034;2023-07-28T08:41:16;18.70;99.90
6654;DHT22;3363;50.942;7.034;2023-07-28T08:43:42;18.70;99.90
6654;DHT22;3363;50.942;7.034;2023-07-28T08:46:09;18.60;99.90
6654;DHT22;3363;50.942;7.034;2023-07-28T08:48:36;18.70;99.90
6654;DHT22;3363;50.942;7.034;2023-07-28T08:51:04;18.60;99.90
6654;DHT22;3363;50.942;7.034;2023-07-28T08:53:31;18.60;99.90
6654;DHT22;3363;50.942;7.034;2023-07-28T08:55:57;18.70;99.90
6654;DHT22;3363;50.942;7.034;2023-07-28T08:58:24;18.80;99.90
6654;DHT22;3363;50.942;7.034;2023-07-28T09:00:51;18.80;99.90
6654;DHT22;3363;50.942;7.034;2023-07-28T09:03:18;18.70;99.90
6654;DHT22;3363;50.942;7.034;2023-07-28T09:05:45;18.80;99.90
6654;DHT22;3363;50.942;7.034;2023-07-28T09:08:13;18.90;99.90
6654;DHT22;3363;50.942;7.034;2023-07-28T09:10:40;19.00;99.90
6654;DHT22;3363;50.942;7.034;2023-07-28T09:13:08;19.10;99.90
6654;DHT22;3363;50.942;7.034;2023-07-28T09:15:35;19.20;99.90
6654;DHT22;3363;50.942;7.034;2023-07-28T09:18:02;19.10;99.90
6654;DHT22;3363;50.942;7.034;2023-07-28T09:20:33;19.30;99.90
6654;DHT22;3363;50.942;7.034;2023-07-28T09:23:01;19.50;99.90
6654;DHT22;3363;50.942;7.034;2023-07-28T09:25:29;19.60;99.90
6654;DHT22;3363;50.942;7.034;2023-07-28T09:27:56;19.50;99.90
6654;DHT22;3363;50.942;7.034;2023-07-28T09:30:24;19.60;99.90
6654;DHT22;3363;50.942;7.034;2023-07-28T09:32:52;19.50;99.90
6654;DHT22;3363;50.942;7.034;2023-07-28T09:35:19;19.50;99.90
6654;DHT22;3363;50.942;7.034;2023-07-28T09:37:47;19.40;99.90
6654;DHT22;3363;50.942;7.034;2023-07-28T09:40:16;19.30;99.90
6654;DHT22;3363;50.942;7.034;2023-07-28T09:42:45;19.30;99.90
6654;DHT22;3363;50.942;7.034;2023-07-28T09:45:15;19.30;99.90
6654;DHT22;3363;50.942;7.034;2023-07-28T09:47:42;19.30;99.90
6654;DHT22;3363;50.942;7.034;2023-07-28T09:50:10;19.20;99.90
6654;DHT22;3363;50.942;7.034;2023-07-28T09:52:39;19.30;99.90
6654;DHT22;3363;50.942;7.034;2023-07-28T09:55:09;19.20;99.90
6654;DHT22;3363;50.942;7.034;2023-07-28T09:57:38;19.10;99.90
6654;DHT22;3363;50.942;7.034;2023-07-28T10:00:08;19.20;99.90
6654;DHT22;3363;50.942;7.034;2023-07-28T10:02:37;19.30;99.90
6654;DHT22;3363;50.942;7.034;2023-07-28T10:05:04;19.30;99.90
6654;DHT22;3363;50.942;7.034;2023-07-28T10:07:31;19.40;99.90
6654;DHT22;3363;50.942;7.034;2023-07-28T10:09:59;19.40;99.90
6654;DHT22;3363;50.942;7.034;2023-07-28T10:12:26;19.60;99.90
6654;DHT22;3363;50.942;7.034;2023-07-28T10:14:59;19.50;99.90
6654;DHT22;3363;50.942;7.034;2023-07-28T10:17:32;19.50;99.90
6654;DHT22;3363;50.942;7.034;2023-07-28T10:20:00;19.70;99.90
6654;DHT22;3363;50.942;7.034;2023-07-28T10:22:32;19.60;99.90
6654;DHT22;3363;50.942;7.034;2023-07-28T10:25:00;19.70;99.90
6654;DHT22;3363;50.942;7.034;2023-07-28T10:27:31;19.70;99.90
6654;DHT22;3363;50.942;7.034;2023-07-28T10:29:58;19.80;99.90
6654;DHT22;3363;50.942;7.034;2023-07-28T10:32:25;19.80;99.90
6654;DHT22;3363;50.942;7.034;2023-07-28T10:35:01;19.80;99.90
6654;DHT22;3363;50.942;7.034;2023-07-28T10:37:32;19.90;99.90
6654;DHT22;3363;50.942;7.034;2023-07-28T10:40:21;19.90;99.90
6654;DHT22;3363;50.942;7.034;2023-07-28T10:42:48;20.00;99.90
6654;DHT22;3363;50.942;7.034;2023-07-28T10:45:15;20.00;99.90
6654;DHT22;3363;50.942;7.034;2023-07-28T10:47:42;20.00;99.90
6654;DHT22;3363;50.942;7.034;2023-07-28T10:50:10;20.00;99.90
6654;DHT22;3363;50.942;7.034;2023-07-28T10:52:40;19.90;99.90
6654;DHT22;3363;50.942;7.034;2023-07-28T10:55:11;20.00;99.90
6654;DHT22;3363;50.942;7.034;2023-07-28T10:57:38;20.00;99.90
6654;DHT22;3363;50.942;7.034;2023-07-28T11:00:05;19.90;99.90
6654;DHT22;3363;50.942;7.034;2023-07-28T11:02:33;19.90;99.90
6654;DHT22;3363;50.942;7.034;2023-07-28T11:05:05;19.90;99.90
6654;DHT22;3363;50.942;7.034;2023-07-28T11:07:33;19.80;99.90
6654;DHT22;3363;50.942;7.034;2023-07-28T11:10:00;19.90;99.90
6654;DHT22;3363;50.942;7.034;2023-07-28T11:12:28;19.90;99.90
6654;DHT22;3363;50.942;7.034;2023-07-28T11:14:54;20.10;99.90
6654;DHT22;3363;50.942;7.034;2023-07-28T11:17:21;20.20;99.90
6654;DHT22;3363;50.942;7.034;2023-07-28T11:19:48;20.30;99.90
6654;DHT22;3363;50.942;7.034;2023-07-28T11:22:16;20.20;99.90
6654;DHT22;3363;50.942;7.034;2023-07-28T11:24:44;20.20;99.90
6654;DHT22;3363;50.942;7.034;2023-07-28T11:27:11;20.20;99.90
6654;DHT22;3363;50.942;7.034;2023-07-28T11:29:39;20.20;99.90
6654;DHT22;3363;50.942;7.034;2023-07-28T11:32:07;20.20;99.90
6654;DHT22;3363;50.942;7.034;2023-07-28T11:34:35;20.20;99.90
6654;DHT22;3363;50.942;7.034;2023-07-28T11:37:02;20.20;99.90
6654;DHT22;3363;50.942;7.034;2023-07-28T11:39:30;20.20;99.90
6654;DHT22;3363;50.942;7.034;2023-07-28T11:41:59;20.00;99.90
6654;DHT22;3363;50.942;7.034;2023-07-28T11:44:25;20.10;99.90
6654;DHT22;3363;50.942;7.034;2023-07-28T11:46:52;20.10;99.90
6654;DHT22;3363;50.942;7.034;2023-07-28T11:49:20;20.40;99.90
6654;DHT22;3363;50.942;7.034;2023-07-28T11:51:48;20.30;99.90
6654;DHT22;3363;50.942;7.034;2023-07-28T11:54:16;20.40;99.90
6654;DHT22;3363;50.942;7.034;2023-07-28T11:56:48;20.50;99.90
6654;DHT22;3363;50.942;7.034;2023-07-28T11:59:16;20.50;99.90
6654;DHT22;3363;50.942;7.034;2023-07-28T12:01:53;20.60;99.90
6654;DHT22;3363;50.942;7.034;2023-07-28T12:04:20;20.50;99.90
6654;DHT22;3363;50.942;7.034;2023-07-28T12:07:00;20.40;99.90
6654;DHT22;3363;50.942;7.034;2023-07-28T12:09:28;20.40;99.90
6654;DHT22;3363;50.942;7.034;2023-07-28T12:11:54;20.60;99.90
6654;DHT22;3363;50.942;7.034;2023-07-28T12:14:31;20.80;99.90
6654;DHT22;3363;50.942;7.034;2023-07-28T12:16:58;20.80;99.90
6654;DHT22;3363;50.942;7.034;2023-07-28T12:19:25;20.90;99.90
6654;DHT22;3363;50.942;7.034;2023-07-28T12:21:52;20.90;99.90
6654;DHT22;3363;50.942;7.034;2023-07-28T12:24:19;20.90;99.90
6654;DHT22;3363;50.942;7.034;2023-07-28T12:26:45;21.00;99.90
6654;DHT22;3363;50.942;7.034;2023-07-28T12:29:13;20.90;99.90
6654;DHT22;3363;50.942;7.034;2023-07-28T12:31:41;20.80;99.90
6654;DHT22;3363;50.942;7.034;2023-07-28T12:34:07;20.90;99.90
6654;DHT22;3363;50.942;7.034;2023-07-28T12:36:34;20.80;99.90
6654;DHT22;3363;50.942;7.034;2023-07-28T12:39:01;20.80;99.90
6654;DHT22;3363;50.942;7.034;2023-07-28T12:41:28;20.80;99.90
6654;DHT22;3363;50.942;7.034;2023-07-28T12:43:55;20.80;99.90
6654;DHT22;3363;50.942;7.034;2023-07-28T12:46:22;20.80;99.90
6654;DHT22;3363;50.942;7.034;2023-07-28T12:48:50;20.70;99.90
6654;DHT22;3363;50.942;7.034;2023-07-28T12:51:16;20.80;99.90
6654;DHT22;3363;50.942;7.034;2023-07-28T12:53:43;20.70;99.90
6654;DHT22;3363;50.942;7.034;2023-07-28T12:56:09;20.60;99.90
6654;DHT22;3363;50.942;7.034;2023-07-28T12:58:36;20.60;99.90
6654;DHT22;3363;50.942;7.034;2023-07-28T13:01:03;20.60;99.90
6654;DHT22;3363;50.942;7.034;2023-07-28T13:03:30;20.60;99.90
6654;DHT22;3363;50.942;7.034;2023-07-28T13:05:57;20.60;99.90
6654;DHT22;3363;50.942;7.034;2023-07-28T13:08:25;20.70;99.90
6654;DHT22;3363;50.942;7.034;2023-07-28T13:10:51;20.60;99.90
6654;DHT22;3363;50.942;7.034;2023-07-28T13:13:18;20.60;99.90
6654;DHT22;3363;50.942;7.034;2023-07-28T13:15:45;20.60;99.90
6654;DHT22;3363;50.942;7.034;2023-07-28T13:18:11;20.60;99.90
6654;DHT22;3363;50.942;7.034;2023-07-28T13:20:38;20.60;99.90
6654;DHT22;3363;50.942;7.034;2023-07-28T13:23:06;20.60;99.90
6654;DHT22;3363;50.942;7.034;2023-07-28T13:25:33;20.70;99.90
6654;DHT22;3363;50.942;7.034;2023-07-28T13:27:59;20.70;99.90
6654;DHT22;3363;50.942;7.034;2023-07-28T13:30:26;20.80;99.90
6654;DHT22;3363;50.942;7.034;2023-07-28T13:32:52;20.80;99.90
6654;DHT22;3363;50.942;7.034;2023-07-28T13:35:19;21.00;99.90
6654;DHT22;3363;50.942;7.034;2023-07-28T13:37:46;21.10;99.90
6654;DHT22;3363;50.942;7.034;2023-07-28T13:40:14;21.10;99.90
6654;DHT22;3363;50.942;7.034;2023-07-28T13:42:40;21.10;99.90
6654;DHT22;3363;50.942;7.034;2023-07-28T13:45:08;21.10;99.90
6654;DHT22;3363;50.942;7.034;2023-07-28T13:47:34;21.10;99.90
6654;DHT22;3363;50.942;7.034;2023-07-28T13:50:01;21.10;99.90
6654;DHT22;3363;50.942;7.034;2023-07-28T13:52:28;21.20;99.90
6654;DHT22;3363;50.942;7.034;2023-07-28T13:54:54;21.20;99.90
6654;DHT22;3363;50.942;7.034;2023-07-28T13:57:22;21.30;99.90
6654;DHT22;3363;50.942;7.034;2023-07-28T13:59:49;21.30;99.90
6654;DHT22;3363;50.942;7.034;2023-07-28T14:02:16;21.30;99.90
6654;DHT22;3363;50.942;7.034;2023-07-28T14:04:43;21.40;99.90
6654;DHT22;3363;50.942;7.034;2023-07-28T14:07:10;21.40;99.90
6654;DHT22;3363;50.942;7.034;2023-07-28T14:09:36;21.30;99.90
6654;DHT22;3363;50.942;7.034;2023-07-28T14:12:03;21.30;99.90
6654;DHT22;3363;50.942;7.034;2023-07-28T14:14:31;21.30;99.90
6654;DHT22;3363;50.942;7.034;2023-07-28T14:16:58;21.20;99.90
6654;DHT22;3363;50.942;7.034;2023-07-28T14:19:25;21.10;99.90
6654;DHT22;3363;50.942;7.034;2023-07-28T14:21:52;21.10;99.90
6654;DHT22;3363;50.942;7.034;2023-07-28T14:24:18;21.10;99.90
6654;DHT22;3363;50.942;7.034;2023-07-28T14:26:45;21.30;99.90
6654;DHT22;3363;50.942;7.034;2023-07-28T14:29:12;21.40;99.90
6654;DHT22;3363;50.942;7.034;2023-07-28T14:31:40;21.50;99.90
6654;DHT22;3363;50.942;7.034;2023-07-28T14:34:06;21.60;99.90
6654;DHT22;3363;50.942;7.034;2023-07-28T14:36:33;21.60;99.90
6654;DHT22;3363;50.942;7.034;2023-07-28T14:39:01;21.80;99.90
6654;DHT22;3363;50.942;7.034;2023-07-28T14:41:28;21.80;99.90
6654;DHT22;3363;50.942;7.034;2023-07-28T14:43:54;21.80;99.90
6654;DHT22;3363;50.942;7.034;2023-07-28T14:46:21;21.80;99.90
6654;DHT22;3363;50.942;7.034;2023-07-28T14:48:51;21.70;99.90
6654;DHT22;3363;50.942;7.034;2023-07-28T14:51:18;21.70;99.90
6654;DHT22;3363;50.942;7.034;2023-07-28T14:53:45;21.60;99.90
6654;DHT22;3363;50.942;7.034;2023-07-28T14:56:12;21.60;99.90
6654;DHT22;3363;50.942;7.034;2023-07-28T14:58:39;21.60;99.90
6654;DHT22;3363;50.942;7.034;2023-07-28T15:01:07;21.60;99.90
6654;DHT22;3363;50.942;7.034;2023-07-28T15:03:34;21.60;99.90
6654;DHT22;3363;50.942;7.034;2023-07-28T15:06:02;21.60;99.90
6654;DHT22;3363;50.942;7.034;2023-07-28T15:08:29;21.50;99.90
6654;DHT22;3363;50.942;7.034;2023-07-28T15:10:56;21.60;99.90
6654;DHT22;3363;50.942;7.034;2023-07-28T15:13:23;21.70;99.90
6654;DHT22;3363;50.942;7.034;2023-07-28T15:15:50;21.70;99.90
6654;DHT22;3363;50.942;7.034;2023-07-28T15:18:17;21.70;99.90
6654;DHT22;3363;50.942;7.034;2023-07-28T15:20:43;21.70;99.90
6654;DHT22;3363;50.942;7.034;2023-07-28T15:23:11;21.60;99.90
6654;DHT22;3363;50.942;7.034;2023-07-28T15:25:38;21.60;99.90
6654;DHT22;3363;50.942;7.034;2023-07-28T15:28:08;21.60;99.90
6654;DHT22;3363;50.942;7.034;2023-07-28T15:30:35;21.50;99.90
6654;DHT22;3363;50.942;7.034;2023-07-28T15:33:01;21.40;99.90
6654;DHT22;3363;50.942;7.034;2023-07-28T15:35:28;21.50;99.90
6654;DHT22;3363;50.942;7.034;2023-07-28T15:37:55;21.50;99.90
6654;DHT22;3363;50.942;7.034;2023-07-28T15:40:23;21.60;99.90
6654;DHT22;3363;50.942;7.034;2023-07-28T15:42:50;21.80;99.90
6654;DHT22;3363;50.942;7.034;2023-07-28T15:45:16;21.80;99.90
6654;DHT22;3363;50.942;7.034;2023-07-28T15:47:43;21.80;99.90
6654;DHT22;3363;50.942;7.034;2023-07-28T15:50:10;21.80;99.90
6654;DHT22;3363;50.942;7.034;2023-07-28T15:52:36;21.80;99.90
6654;DHT22;3363;50.942;7.034;2023-07-28T15:55:04;21.90;99.90
6654;DHT22;3363;50.942;7.034;2023-07-28T15:57:32;21.90;99.90
6654;DHT22;3363;50.942;7.034;2023-07-28T15:59:59;21.80;99.90
6654;DHT22;3363;50.942;7.034;2023-07-28T16:02:26;21.70;99.90
6654;DHT22;3363;50.942;7.034;2023-07-28T16:04:52;21.70;99.90
6654;DHT22;3363;50.942;7.034;2023-07-28T16:07:19;21.70;99.90